createdAt,value
2023-04-22T00:00:58.789Z,99.90
2023-04-22T00:03:28.863Z,99.90
2023-04-22T00:05:57.577Z,99.90
2023-04-22T00:08:26.497Z,99.90
2023-04-22T00:10:54.863Z,99.90
2023-04-22T00:13:24.481Z,99.90
2023-04-22T00:15:52.802Z,99.90
2023-04-22T00:18:21.868Z,99.90
2023-04-22T00:20:50.183Z,1.00
2023-04-22T00:23:19.095Z,99.90
2023-04-22T00:25:47.367Z,1.00
2023-04-22T00:28:15.645Z,1.00
2023-04-22T00:30:45.326Z,99.90
2023-04-22T00:33:13.848Z,1.00
2023-04-22T00:35:42.293Z,99.90
2023-04-22T00:38:10.546Z,99.90
2023-04-22T00:40:39.586Z,99.90
2023-04-22T00:43:09.805Z,99.90
2023-04-22T00:45:38.751Z,1.00
2023-04-22T00:48:09.670Z,99.90
2023-04-22T00:50:38.170Z,99.90
2023-04-22T00:53:06.489Z,99.90
2023-04-22T00:55:35.541Z,99.90
2023-04-22T00:58:05.638Z,1.00
2023-04-22T01:00:34.078Z,1.00
2023-04-22T01:03:04.345Z,1.00
2023-04-22T01:05:35.731Z,1.00
2023-04-22T01:08:04.429Z,1.00
2023-04-22T01:10:32.743Z,1.00
2023-04-22T01:13:01.727Z,1.00
2023-04-22T01:15:30.679Z,1.00
2023-04-22T01:18:00.617Z,1.00
2023-04-22T01:20:30.458Z,1.00
2023-04-22T01:23:05.072Z,1.00
2023-04-22T01:25:35.049Z,1.00
2023-04-22T01:28:04.703Z,1.00
2023-04-22T01:30:34.053Z,1.00
2023-04-22T01:33:02.753Z,1.00
2023-04-22T01:35:36.694Z,1.00
2023-04-22T01:38:05.920Z,1.00
2023-04-22T01:40:36.286Z,1.00
2023-04-22T01:43:04.840Z,1.00
2023-04-22T01:45:35.060Z,1.00
2023-04-22T01:48:03.508Z,1.00
2023-04-22T01:50:31.922Z,1.00
2023-04-22T01:53:00.929Z,1.00
2023-04-22T01:55:29.454Z,1.00
2023-04-22T01:57:59.073Z,1.00
2023-04-22T02:00:27.428Z,27.20
2023-04-22T02:02:55.848Z,1.00
2023-04-22T02:05:27.863Z,1.00
2023-04-22T02:07:56.307Z,43.70
2023-04-22T02:10:24.654Z,99.90
2023-04-22T02:12:53.037Z,99.90
2023-04-22T02:15:23.414Z,99.90
2023-04-22T02:17:54.701Z,99.90
2023-04-22T02:20:23.188Z,98.90
2023-04-22T02:22:52.053Z,99.90
2023-04-22T02:25:21.501Z,99.90
2023-04-22T02:27:51.587Z,99.90
2023-04-22T02:30:21.720Z,99.90
2023-04-22T02:32:50.057Z,99.90
2023-04-22T02:35:18.473Z,99.90
2023-04-22T02:37:46.706Z,99.90
2023-04-22T02:40:15.115Z,99.90
2023-04-22T02:42:43.358Z,99.90
2023-04-22T02:45:12.560Z,99.90
2023-04-22T02:47:42.534Z,99.90
2023-04-22T02:50:12.309Z,99.90
2023-04-22T02:52:40.581Z,99.90
2023-04-22T02:55:10.767Z,1.00
2023-04-22T02:57:39.156Z,99.90
2023-04-22T03:00:10.222Z,1.00
2023-04-22T03:02:39.233Z,1.00
2023-04-22T03:05:15.916Z,1.00
2023-04-22T03:07:44.529Z,99.90
2023-04-22T03:10:13.193Z,99.90
2023-04-22T03:12:42.691Z,99.90
2023-04-22T03:15:12.189Z,99.90
2023-04-22T03:17:40.886Z,1.00
2023-04-22T03:20:15.104Z,1.00
2023-04-22T03:22:43.992Z,99.90
2023-04-22T03:25:14.409Z,99.90
2023-04-22T03:27:47.215Z,1.00
2023-04-22T03:30:15.870Z,99.90
2023-04-22T03:32:44.732Z,99.90
2023-04-22T03:35:22.684Z,1.00
2023-04-22T03:37:52.833Z,1.00
2023-04-22T03:40:27.522Z,1.00
2023-04-22T03:42:56.931Z,1.00
2023-04-22T03:45:25.846Z,1.00
2023-04-22T03:48:08.155Z,1.00
2023-04-22T03:50:43.961Z,1.00
2023-04-22T03:53:12.571Z,1.00
2023-04-22T03:55:41.362Z,1.00
2023-04-22T03:58:09.739Z,92.60
2023-04-22T04:00:38.138Z,1.00
2023-04-22T04:03:15.813Z,51.80
2023-04-22T04:05:46.740Z,1.00
2023-04-22T04:08:15.826Z,33.40
2023-04-22T04:10:45.094Z,1.00
2023-04-22T04:13:14.951Z,97.20
2023-04-22T04:16:01.448Z,31.10
2023-04-22T04:18:32.688Z,46.00
2023-04-22T04:21:04.135Z,99.90
2023-04-22T04:23:34.591Z,99.90
2023-04-22T04:26:05.779Z,99.90
2023-04-22T04:28:37.289Z,99.90
2023-04-22T04:31:06.296Z,99.90
2023-04-22T04:33:37.046Z,99.90
2023-04-22T04:36:08.757Z,88.30
2023-04-22T04:38:37.238Z,99.90
2023-04-22T04:41:05.757Z,99.90
2023-04-22T04:43:35.236Z,1.00
2023-04-22T04:46:17.780Z,15.80
2023-04-22T04:48:48.710Z,96.50
2023-04-22T04:51:20.363Z,8.30
2023-04-22T04:53:56.422Z,1.00
2023-04-22T04:56:27.246Z,1.00
2023-04-22T04:58:56.354Z,1.00
2023-04-22T05:01:26.995Z,1.00
2023-04-22T05:03:58.307Z,1.00
2023-04-22T05:06:28.434Z,1.00
2023-04-22T05:09:02.211Z,1.00
2023-04-22T05:11:30.703Z,1.00
2023-04-22T05:14:01.276Z,1.00
2023-04-22T05:16:36.356Z,1.00
2023-04-22T05:19:05.620Z,1.00
2023-04-22T05:21:36.179Z,1.00
2023-04-22T05:24:05.960Z,1.00
2023-04-22T05:26:34.309Z,1.00
2023-04-22T05:29:06.856Z,1.00
2023-04-22T05:31:35.152Z,1.00
2023-04-22T05:34:03.499Z,1.00
2023-04-22T05:36:32.845Z,99.90
2023-04-22T05:39:02.930Z,99.90
2023-04-22T05:41:33.134Z,99.90
2023-04-22T05:44:02.056Z,99.90
2023-04-22T05:46:31.918Z,99.90
2023-04-22T05:49:00.812Z,99.90
2023-04-22T05:51:49.264Z,99.90
2023-04-22T05:54:21.249Z,99.90
2023-04-22T05:56:49.755Z,41.70
2023-04-22T05:59:19.619Z,1.00
2023-04-22T06:01:49.953Z,1.00
2023-04-22T06:04:21.413Z,1.00
2023-04-22T06:06:50.976Z,1.00
2023-04-22T06:09:20.724Z,1.00
2023-04-22T06:11:49.462Z,1.00
2023-04-22T06:14:17.752Z,1.00
2023-04-22T06:16:47.661Z,1.00
2023-04-22T06:19:16.032Z,1.00
2023-04-22T06:21:44.463Z,1.00
2023-04-22T06:24:12.706Z,1.00
2023-04-22T06:26:45.347Z,1.00
2023-04-22T06:29:13.864Z,99.90
2023-04-22T06:31:42.649Z,1.00
2023-04-22T06:34:11.043Z,1.00
2023-04-22T06:36:39.807Z,1.00
2023-04-22T06:39:10.923Z,1.00
2023-04-22T06:41:46.032Z,1.00
2023-04-22T06:44:32.704Z,1.00
2023-04-22T06:47:16.417Z,1.00
2023-04-22T06:49:50.411Z,1.00
2023-04-22T06:52:36.262Z,1.00
2023-04-22T06:55:05.326Z,1.00
2023-04-22T06:57:35.425Z,99.90
2023-04-22T07:00:04.444Z,1.00
2023-04-22T07:02:33.224Z,99.90
2023-04-22T07:05:01.651Z,99.90
2023-04-22T07:07:30.716Z,99.90
2023-04-22T07:09:59.094Z,99.90
2023-04-22T07:12:34.640Z,99.90
2023-04-22T07:15:02.890Z,99.90
2023-04-22T07:17:31.068Z,99.90
2023-04-22T07:19:59.349Z,99.90
2023-04-22T07:22:27.624Z,99.90
2023-04-22T07:24:56.226Z,99.90
2023-04-22T07:27:24.487Z,99.90
2023-04-22T07:29:54.037Z,99.90
2023-04-22T07:32:22.514Z,99.90
2023-04-22T07:34:50.728Z,99.90
2023-04-22T07:37:18.992Z,99.90
2023-04-22T07:39:47.164Z,99.90
2023-04-22T07:42:15.600Z,99.90
2023-04-22T07:44:43.902Z,99.90
2023-04-22T07:47:13.578Z,99.90
2023-04-22T07:49:43.343Z,99.90
2023-04-22T07:52:11.604Z,99.90
2023-04-22T07:54:39.794Z,99.90
2023-04-22T07:57:08.031Z,99.90
2023-04-22T07:59:36.319Z,99.90
2023-04-22T08:02:04.671Z,99.90
2023-04-22T08:04:34.564Z,99.90
2023-04-22T08:07:17.178Z,99.90
2023-04-22T08:09:52.133Z,99.90
2023-04-22T08:12:20.465Z,99.90
2023-04-22T08:14:48.668Z,99.90
2023-04-22T08:17:17.095Z,99.90
2023-04-22T08:19:46.745Z,99.90
2023-04-22T08:22:15.003Z,99.90
2023-04-22T08:24:43.233Z,99.90
2023-04-22T08:27:11.929Z,99.90
2023-04-22T08:29:40.406Z,99.90
2023-04-22T08:32:09.035Z,99.90
2023-04-22T08:34:37.300Z,99.90
2023-04-22T08:37:06.856Z,99.90
2023-04-22T08:39:35.342Z,99.90
2023-04-22T08:42:04.143Z,99.90
2023-04-22T08:44:32.696Z,99.90
2023-04-22T08:47:03.058Z,36.80
2023-04-22T08:49:32.247Z,53.10
2023-04-22T08:52:00.517Z,1.00
2023-04-22T08:54:30.131Z,99.90
2023-04-22T08:57:00.125Z,99.90
2023-04-22T08:59:29.248Z,95.20
2023-04-22T09:01:59.741Z,99.90
2023-04-22T09:04:28.152Z,99.90
2023-04-22T09:06:57.252Z,99.90
2023-04-22T09:09:25.828Z,59.30
2023-04-22T09:11:55.395Z,15.50
2023-04-22T09:14:24.894Z,1.00
2023-04-22T09:16:53.238Z,1.00
2023-04-22T09:19:26.180Z,1.00
2023-04-22T09:21:54.646Z,1.00
2023-04-22T09:24:23.267Z,1.00
2023-04-22T09:26:51.700Z,1.00
2023-04-22T09:29:21.421Z,1.00
2023-04-22T09:31:50.656Z,1.00
2023-04-22T09:34:18.927Z,1.00
2023-04-22T09:36:48.473Z,1.00
2023-04-22T09:39:16.727Z,1.00
2023-04-22T09:41:44.998Z,1.00
2023-04-22T09:44:18.075Z,1.00
2023-04-22T09:46:51.231Z,1.00
2023-04-22T09:49:19.589Z,1.00
2023-04-22T09:51:49.767Z,1.00
2023-04-22T09:54:18.218Z,1.00
2023-04-22T09:56:51.787Z,1.00
2023-04-22T09:59:23.194Z,1.00
2023-04-22T10:01:55.869Z,1.00
2023-04-22T10:04:25.558Z,1.00
2023-04-22T10:06:54.884Z,99.90
2023-04-22T10:09:25.010Z,99.90
2023-04-22T10:11:55.842Z,99.90
2023-04-22T10:14:24.761Z,99.90
2023-04-22T10:16:59.948Z,99.90
2023-04-22T10:19:29.832Z,99.90
2023-04-22T10:22:03.386Z,99.90
2023-04-22T10:24:37.910Z,99.90
2023-04-22T10:27:08.350Z,99.90
2023-04-22T10:29:39.594Z,99.90
2023-04-22T10:32:27.689Z,99.90
2023-04-22T10:35:11.781Z,99.90
2023-04-22T10:37:44.539Z,99.90
2023-04-22T10:40:17.241Z,99.90
2023-04-22T10:42:51.649Z,99.90
2023-04-22T10:45:25.004Z,99.90
2023-04-22T10:47:54.828Z,99.90
2023-04-22T10:50:26.877Z,99.90
2023-04-22T10:52:58.482Z,99.90
2023-04-22T10:55:51.704Z,95.70
2023-04-22T10:58:21.813Z,99.90
2023-04-22T11:00:54.498Z,25.00
2023-04-22T11:03:30.707Z,99.90
2023-04-22T11:06:18.680Z,99.90
2023-04-22T11:08:48.518Z,99.90
2023-04-22T11:11:19.338Z,99.90
2023-04-22T11:13:51.773Z,99.90
2023-04-22T11:16:23.289Z,99.90
2023-04-22T11:18:53.492Z,76.60
2023-04-22T11:21:22.673Z,29.90
2023-04-22T11:23:52.731Z,1.00
2023-04-22T11:26:34.700Z,1.00
2023-04-22T11:29:03.078Z,29.30
2023-04-22T11:31:31.493Z,98.20
2023-04-22T11:34:01.675Z,9.60
2023-04-22T11:36:30.280Z,99.90
2023-04-22T11:38:58.781Z,63.00
2023-04-22T11:41:29.937Z,1.00
2023-04-22T11:43:58.195Z,85.40
2023-04-22T11:46:31.407Z,96.10
2023-04-22T11:49:15.460Z,20.50
2023-04-22T11:52:12.660Z,1.00
2023-04-22T11:54:41.268Z,1.00
2023-04-22T11:57:14.111Z,1.00
2023-04-22T11:59:42.542Z,1.00
2023-04-22T12:02:11.345Z,1.00
2023-04-22T12:04:42.415Z,1.00
2023-04-22T12:07:10.732Z,1.00
2023-04-22T12:09:41.047Z,1.00
2023-04-22T12:12:09.654Z,1.00
2023-04-22T12:14:38.269Z,1.00
2023-04-22T12:17:10.546Z,1.00
2023-04-22T12:19:39.291Z,1.00
2023-04-22T12:22:09.205Z,1.00
2023-04-22T12:24:37.547Z,1.00
2023-04-22T12:27:05.798Z,1.00
2023-04-22T12:29:35.675Z,1.00
2023-04-22T12:32:03.975Z,1.00
2023-04-22T12:34:32.238Z,1.00
2023-04-22T12:37:00.821Z,1.00
2023-04-22T12:39:30.691Z,1.00
2023-04-22T12:41:58.974Z,1.00
2023-04-22T12:44:27.290Z,1.00
2023-04-22T12:46:55.554Z,1.00
2023-04-22T12:49:24.084Z,1.00
2023-04-22T12:51:52.421Z,1.00
2023-04-22T12:54:21.593Z,1.00
2023-04-22T12:56:52.078Z,1.00
2023-04-22T12:59:21.065Z,1.00
2023-04-22T13:01:49.432Z,1.00
2023-04-22T13:04:20.441Z,1.00
2023-04-22T13:06:50.539Z,1.00
2023-04-22T13:09:18.814Z,1.00
2023-04-22T13:11:49.183Z,1.00
2023-04-22T13:14:19.934Z,1.00
2023-04-22T13:16:48.258Z,1.00
2023-04-22T13:19:16.594Z,1.00
2023-04-22T13:21:45.043Z,1.00
2023-04-22T13:24:13.315Z,1.00
2023-04-22T13:26:41.547Z,1.00
2023-04-22T13:29:13.962Z,1.00
2023-04-22T13:31:44.788Z,1.00
2023-04-22T13:34:14.295Z,1.00
2023-04-22T13:36:42.596Z,1.00
2023-04-22T13:39:11.386Z,1.00
2023-04-22T13:41:39.588Z,1.00
2023-04-22T13:44:08.910Z,1.00
2023-04-22T13:46:38.192Z,1.00
2023-04-22T13:49:11.727Z,1.00
2023-04-22T13:51:40.431Z,1.00
2023-04-22T13:54:09.135Z,1.00
2023-04-22T13:56:37.463Z,1.00
2023-04-22T13:59:05.878Z,1.00
2023-04-22T14:01:34.369Z,1.00
2023-04-22T14:04:02.807Z,1.00
2023-04-22T14:06:32.586Z,1.00
2023-04-22T14:09:01.160Z,1.00
2023-04-22T14:11:29.381Z,1.00
2023-04-22T14:13:57.675Z,1.00
2023-04-22T14:16:26.037Z,1.00
2023-04-22T14:18:55.805Z,1.00
2023-04-22T14:21:26.538Z,1.00
2023-04-22T14:23:57.018Z,1.00
2023-04-22T14:26:25.294Z,1.00
2023-04-22T14:28:53.717Z,1.00
2023-04-22T14:31:24.175Z,1.00
2023-04-22T14:33:52.729Z,1.00
2023-04-22T14:36:21.005Z,1.00
2023-04-22T14:38:49.346Z,1.00
2023-04-22T14:41:18.982Z,1.00
2023-04-22T14:43:47.854Z,1.00
2023-04-22T14:46:16.174Z,1.00
2023-04-22T14:48:44.781Z,1.00
2023-04-22T14:51:13.117Z,1.00
2023-04-22T14:53:41.598Z,1.00
2023-04-22T14:56:11.727Z,1.00
2023-04-22T14:58:41.257Z,1.00
2023-04-22T15:01:09.639Z,1.00
2023-04-22T15:03:38.248Z,1.00
2023-04-22T15:06:06.930Z,1.00
2023-04-22T15:08:35.296Z,1.00
2023-04-22T15:11:03.494Z,1.00
2023-04-22T15:13:31.762Z,1.00
2023-04-22T15:16:01.334Z,1.00
2023-04-22T15:18:29.936Z,1.00
2023-04-22T15:20:58.253Z,1.00
2023-04-22T15:23:26.510Z,1.00
2023-04-22T15:25:55.414Z,1.00
2023-04-22T15:28:24.361Z,1.00
2023-04-22T15:30:52.636Z,1.00
2023-04-22T15:33:22.285Z,1.00
2023-04-22T15:35:50.565Z,1.00
2023-04-22T15:38:18.982Z,1.00
2023-04-22T15:40:47.185Z,1.00
2023-04-22T15:43:15.403Z,1.00
2023-04-22T15:45:43.652Z,1.00
2023-04-22T15:48:11.900Z,1.00
2023-04-22T15:50:41.710Z,1.00
2023-04-22T15:53:09.990Z,1.00
2023-04-22T15:55:38.428Z,1.00
2023-04-22T15:58:06.692Z,1.00
2023-04-22T16:00:35.445Z,1.00
2023-04-22T16:03:04.132Z,1.00
2023-04-22T16:05:34.582Z,1.00
2023-04-22T16:08:04.224Z,1.00
2023-04-22T16:10:32.508Z,1.00
2023-04-22T16:13:00.939Z,1.00
2023-04-22T16:15:29.279Z,1.00
2023-04-22T16:17:57.979Z,1.00
2023-04-22T16:20:26.378Z,1.00
2023-04-22T16:22:54.690Z,1.00
2023-04-22T16:25:24.336Z,1.00
2023-04-22T16:27:52.751Z,1.00
2023-04-22T16:30:21.042Z,1.00
2023-04-22T16:32:50.594Z,1.00
2023-04-22T16:35:18.911Z,1.00
2023-04-22T16:37:47.256Z,1.00
2023-04-22T16:40:15.719Z,1.00
2023-04-22T16:42:45.367Z,1.00
2023-04-22T16:45:13.648Z,1.00
2023-04-22T16:47:41.877Z,1.00
2023-04-22T16:50:12.219Z,1.00
2023-04-22T16:52:40.679Z,1.00
2023-04-22T16:55:09.805Z,1.00
2023-04-22T16:57:38.060Z,1.00
2023-04-22T17:00:09.835Z,1.00
2023-04-22T17:02:38.180Z,1.00
2023-04-22T17:05:07.684Z,1.00
2023-04-22T17:07:36.028Z,1.00
2023-04-22T17:10:04.679Z,1.00
2023-04-22T17:12:33.011Z,1.00
2023-04-22T17:15:01.432Z,1.00
2023-04-22T17:17:31.367Z,1.00
2023-04-22T17:19:59.722Z,1.00
2023-04-22T17:22:28.483Z,1.00
2023-04-22T17:24:58.630Z,1.00
2023-04-22T17:27:26.992Z,1.00
2023-04-22T17:29:55.188Z,9.60
2023-04-22T17:32:23.494Z,21.50
2023-04-22T17:34:53.156Z,68.00
2023-04-22T17:37:21.394Z,58.00
2023-04-22T17:39:49.574Z,56.20
2023-04-22T17:42:18.857Z,75.80
2023-04-22T17:44:47.116Z,72.90
2023-04-22T17:47:15.465Z,99.90
2023-04-22T17:49:43.909Z,99.90
2023-04-22T17:52:13.796Z,99.90
2023-04-22T17:54:43.493Z,99.90
2023-04-22T17:57:12.195Z,99.90
2023-04-22T17:59:40.660Z,99.90
2023-04-22T18:02:11.689Z,99.90
2023-04-22T18:04:39.916Z,99.90
2023-04-22T18:07:08.370Z,99.90
2023-04-22T18:09:37.949Z,99.90
2023-04-22T18:12:07.102Z,99.90
2023-04-22T18:14:35.429Z,99.90
2023-04-22T18:17:03.987Z,99.90
2023-04-22T18:19:32.541Z,99.90
2023-04-22T18:22:01.352Z,99.90
2023-04-22T18:24:29.617Z,99.90
2023-04-22T18:26:59.272Z,99.90
2023-04-22T18:29:27.878Z,99.90
2023-04-22T18:31:57.519Z,99.90
2023-04-22T18:34:26.366Z,99.90
2023-04-22T18:36:54.571Z,99.90
2023-04-22T18:39:22.770Z,99.90
2023-04-22T18:41:51.109Z,99.90
2023-04-22T18:44:21.479Z,99.90
2023-04-22T18:46:50.327Z,99.90
2023-04-22T18:49:18.624Z,99.90
2023-04-22T18:51:49.123Z,99.90
2023-04-22T18:54:17.690Z,99.90
2023-04-22T18:56:46.131Z,99.90
2023-04-22T18:59:14.516Z,99.90
2023-04-22T19:01:44.238Z,99.90
2023-04-22T19:04:12.929Z,99.90
2023-04-22T19:06:41.398Z,99.90
2023-04-22T19:09:09.787Z,99.90
2023-04-22T19:11:38.109Z,99.90
2023-04-22T19:14:06.478Z,99.90
2023-04-22T19:16:35.516Z,99.90
2023-04-22T19:19:05.095Z,99.90
2023-04-22T19:21:33.706Z,99.90
2023-04-22T19:24:01.957Z,1.00
2023-04-22T19:26:31.047Z,1.00
2023-04-22T19:28:59.586Z,1.00
2023-04-22T19:31:29.696Z,1.00
2023-04-22T19:33:58.137Z,99.90
2023-04-22T19:36:28.203Z,1.00
2023-04-22T19:38:56.444Z,1.00
2023-04-22T19:41:25.001Z,1.00
2023-04-22T19:43:55.343Z,1.00
2023-04-22T19:46:23.551Z,1.00
2023-04-22T19:48:52.744Z,1.00
2023-04-22T19:51:22.409Z,1.00
2023-04-22T19:53:54.492Z,1.00
2023-04-22T19:56:23.442Z,1.00
2023-04-22T19:58:52.881Z,1.00
2023-04-22T20:01:21.661Z,1.00
2023-04-22T20:03:50.883Z,1.00
2023-04-22T20:06:22.745Z,12.10
2023-04-22T20:08:54.225Z,99.90
2023-04-22T20:11:23.194Z,1.00
2023-04-22T20:13:52.077Z,99.90
2023-04-22T20:16:23.263Z,99.90
2023-04-22T20:18:52.322Z,1.00
2023-04-22T20:21:21.123Z,99.90
2023-04-22T20:23:55.146Z,99.90
2023-04-22T20:26:24.227Z,1.00
2023-04-22T20:28:53.938Z,1.00
2023-04-22T20:31:23.805Z,1.00
2023-04-22T20:33:52.526Z,1.00
2023-04-22T20:36:22.203Z,99.90
2023-04-22T20:38:54.717Z,99.90
2023-04-22T20:41:25.628Z,1.00
2023-04-22T20:43:53.921Z,1.00
2023-04-22T20:46:23.115Z,1.00
2023-04-22T20:48:51.686Z,1.00
2023-04-22T20:51:20.017Z,95.60
2023-04-22T20:53:48.326Z,99.90
2023-04-22T20:56:17.982Z,99.90
2023-04-22T20:58:46.338Z,99.90
2023-04-22T21:01:16.298Z,99.90
2023-04-22T21:03:51.731Z,99.90
2023-04-22T21:06:21.946Z,1.00
2023-04-22T21:08:51.336Z,1.00
2023-04-22T21:11:21.786Z,95.50
2023-04-22T21:13:51.289Z,21.70
2023-04-22T21:16:23.913Z,99.90
2023-04-22T21:18:55.872Z,1.00
2023-04-22T21:21:31.027Z,1.00
2023-04-22T21:24:02.058Z,1.00
2023-04-22T21:26:33.951Z,1.00
2023-04-22T21:29:02.713Z,1.00
2023-04-22T21:31:31.231Z,25.90
2023-04-22T21:34:00.461Z,99.90
2023-04-22T21:36:28.807Z,1.00
2023-04-22T21:38:58.443Z,99.90
2023-04-22T21:41:26.724Z,99.90
2023-04-22T21:43:56.357Z,1.00
2023-04-22T21:46:24.637Z,99.90
2023-04-22T21:48:53.502Z,99.90
2023-04-22T21:51:21.987Z,99.90
2023-04-22T21:53:50.561Z,99.90
2023-04-22T21:56:19.153Z,1.00
2023-04-22T21:58:47.562Z,99.90
2023-04-22T22:01:17.208Z,1.00
2023-04-22T22:03:46.490Z,1.00
2023-04-22T22:06:14.927Z,99.90
2023-04-22T22:08:44.926Z,99.90
2023-04-22T22:11:27.562Z,99.90
2023-04-22T22:13:58.550Z,99.90
2023-04-22T22:16:28.403Z,99.90
2023-04-22T22:18:58.203Z,99.90
2023-04-22T22:21:26.493Z,99.90
2023-04-22T22:23:55.032Z,99.90
2023-04-22T22:26:23.288Z,99.90
2023-04-22T22:28:51.534Z,1.00
2023-04-22T22:31:19.851Z,1.00
2023-04-22T22:33:49.462Z,1.00
2023-04-22T22:36:17.762Z,1.00
2023-04-22T22:38:46.127Z,1.00
2023-04-22T22:41:14.357Z,1.00
2023-04-22T22:43:42.541Z,1.00
2023-04-22T22:46:10.801Z,1.00
2023-04-22T22:48:39.682Z,1.00
2023-04-22T22:51:09.409Z,1.00
2023-04-22T22:53:37.785Z,1.00
2023-04-22T22:56:06.619Z,1.00
2023-04-22T22:58:36.139Z,1.00
2023-04-22T23:01:05.054Z,1.00
2023-04-22T23:03:33.558Z,1.00
2023-04-22T23:06:01.977Z,1.00
2023-04-22T23:08:31.574Z,1.00
2023-04-22T23:11:00.653Z,1.00
2023-04-22T23:13:28.988Z,1.00
2023-04-22T23:15:57.418Z,1.00
2023-04-22T23:18:27.433Z,1.00
2023-04-22T23:20:57.223Z,1.00
2023-04-22T23:23:26.057Z,1.00
2023-04-22T23:25:56.916Z,1.00
2023-04-22T23:28:25.950Z,1.00
2023-04-22T23:30:56.809Z,1.00
2023-04-22T23:33:27.010Z,1.00
2023-04-22T23:35:57.494Z,1.00
2023-04-22T23:38:25.740Z,1.00
2023-04-22T23:40:55.430Z,1.00
2023-04-22T23:43:23.632Z,1.00
2023-04-22T23:45:52.012Z,1.00
2023-04-22T23:48:20.298Z,1.00
2023-04-22T23:50:48.566Z,1.00
2023-04-22T23:53:16.752Z,1.00
2023-04-22T23:55:45.673Z,1.00
2023-04-22T23:58:15.814Z,1.00
